sensor_id;sensor_type;location;lat;lon;timestamp;pressure;altitude;pressure_sealevel;temperature;humidity
73516;BME280;61763;51.416;5.442;2023-07-02T00:02:22;100635.97;;;16.50;100.00
73516;BME280;61763;51.416;5.442;2023-07-02T00:04:48;100630.03;;;16.45;100.00
73516;BME280;61763;51.416;5.442;2023-07-02T00:07:13;100625.56;;;16.44;100.00
73516;BME280;61763;51.416;5.442;2023-07-02T00:09:41;100631.38;;;16.39;100.00
73516;BME280;61763;51.416;5.442;2023-07-02T00:12:07;100622.00;;;16.43;100.00
73516;BME280;61763;51.416;5.442;2023-07-02T00:14:33;100621.75;;;16.46;100.00
73516;BME280;61763;51.416;5.442;2023-07-02T00:16:59;100618.38;;;16.32;100.00
73516;BME280;61763;51.416;5.442;2023-07-02T00:19:24;100626.66;;;16.30;100.00
73516;BME280;61763;51.416;5.442;2023-07-02T00:21:50;100627.94;;;16.37;100.00
73516;BME280;61763;51.416;5.442;2023-07-02T00:24:15;100630.97;;;16.33;100.00
73516;BME280;61763;51.416;5.442;2023-07-02T00:26:41;100626.19;;;16.36;100.00
73516;BME280;61763;51.416;5.442;2023-07-02T00:29:08;100629.03;;;16.35;100.00
73516;BME280;61763;51.416;5.442;2023-07-02T00:31:34;100629.63;;;16.38;100.00
73516;BME280;61763;51.416;5.442;2023-07-02T00:34:00;100620.38;;;16.41;100.00
73516;BME280;61763;51.416;5.442;2023-07-02T00:36:29;100633.63;;;16.34;100.00
73516;BME280;61763;51.416;5.442;2023-07-02T00:38:55;100628.84;;;16.25;100.00
73516;BME280;61763;51.416;5.442;2023-07-02T00:41:21;100634.31;;;16.25;100.00
73516;BME280;61763;51.416;5.442;2023-07-02T00:43:47;100623.66;;;16.22;100.00
73516;BME280;61763;51.416;5.442;2023-07-02T00:46:14;100624.75;;;16.19;100.00
73516;BME280;61763;51.416;5.442;2023-07-02T00:48:46;100622.31;;;16.27;100.00
73516;BME280;61763;51.416;5.442;2023-07-02T00:51:14;100618.63;;;16.28;100.00
73516;BME280;61763;51.416;5.442;2023-07-02T00:53:40;100626.78;;;16.28;100.00
73516;BME280;61763;51.416;5.442;2023-07-02T00:56:06;100632.09;;;16.30;100.00
73516;BME280;61763;51.416;5.442;2023-07-02T00:58:34;100629.97;;;16.22;100.00
73516;BME280;61763;51.416;5.442;2023-07-02T01:01:02;100635.31;;;16.24;100.00
73516;BME280;61763;51.416;5.442;2023-07-02T01:03:28;100636.78;;;16.17;100.00
73516;BME280;61763;51.416;5.442;2023-07-02T01:05:54;100636.13;;;16.13;100.00
73516;BME280;61763;51.416;5.442;2023-07-02T01:08:19;100640.06;;;16.09;100.00
73516;BME280;61763;51.416;5.442;2023-07-02T01:10:45;100636.72;;;16.05;100.00
73516;BME280;61763;51.416;5.442;2023-07-02T01:13:17;100640.41;;;16.04;100.00
73516;BME280;61763;51.416;5.442;2023-07-02T01:15:44;100641.13;;;15.95;100.00
73516;BME280;61763;51.416;5.442;2023-07-02T01:18:11;100638.00;;;15.88;100.00
73516;BME280;61763;51.416;5.442;2023-07-02T01:20:39;100646.28;;;15.87;100.00
73516;BME280;61763;51.416;5.442;2023-07-02T01:23:04;100645.44;;;15.73;100.00
73516;BME280;61763;51.416;5.442;2023-07-02T01:25:30;100649.78;;;15.76;100.00
73516;BME280;61763;51.416;5.442;2023-07-02T01:27:56;100653.09;;;15.68;100.00
73516;BME280;61763;51.416;5.442;2023-07-02T01:30:24;100657.44;;;15.71;100.00
73516;BME280;61763;51.416;5.442;2023-07-02T01:32:50;100652.97;;;15.83;100.00
73516;BME280;61763;51.416;5.442;2023-07-02T01:35:16;100650.88;;;15.86;100.00
73516;BME280;61763;51.416;5.442;2023-07-02T01:37:41;100655.22;;;15.89;100.00
73516;BME280;61763;51.416;5.442;2023-07-02T01:40:07;100655.69;;;15.83;100.00
73516;BME280;61763;51.416;5.442;2023-07-02T01:42:36;100658.78;;;15.89;100.00
73516;BME280;61763;51.416;5.442;2023-07-02T01:45:02;100653.81;;;15.83;100.00
73516;BME280;61763;51.416;5.442;2023-07-02T01:47:27;100659.38;;;15.82;100.00
73516;BME280;61763;51.416;5.442;2023-07-02T01:49:53;100662.66;;;15.74;100.00
73516;BME280;61763;51.416;5.442;2023-07-02T01:52:18;100663.50;;;15.74;100.00
73516;BME280;61763;51.416;5.442;2023-07-02T01:54:45;100665.94;;;15.66;100.00
73516;BME280;61763;51.416;5.442;2023-07-02T01:57:10;100672.38;;;15.65;100.00
73516;BME280;61763;51.416;5.442;2023-07-02T01:59:35;100668.31;;;15.71;100.00
73516;BME280;61763;51.416;5.442;2023-07-02T02:02:01;100668.88;;;15.63;100.00
73516;BME280;61763;51.416;5.442;2023-07-02T02:04:27;100673.56;;;15.61;100.00
73516;BME280;61763;51.416;5.442;2023-07-02T02:06:52;100668.25;;;15.59;100.00
73516;BME280;61763;51.416;5.442;2023-07-02T02:09:18;100676.41;;;15.59;100.00
73516;BME280;61763;51.416;5.442;2023-07-02T02:11:47;100676.75;;;15.55;100.00
73516;BME280;61763;51.416;5.442;2023-07-02T02:14:13;100667.47;;;15.57;100.00
73516;BME280;61763;51.416;5.442;2023-07-02T02:16:38;100678.47;;;15.56;100.00
73516;BME280;61763;51.416;5.442;2023-07-02T02:19:04;100675.00;;;15.54;100.00
73516;BME280;61763;51.416;5.442;2023-07-02T02:21:30;100675.13;;;15.52;100.00
73516;BME280;61763;51.416;5.442;2023-07-02T02:23:55;100680.78;;;15.49;100.00
73516;BME280;61763;51.416;5.442;2023-07-02T02:26:21;100677.72;;;15.54;100.00
73516;BME280;61763;51.416;5.442;2023-07-02T02:28:48;100671.09;;;15.58;100.00
73516;BME280;61763;51.416;5.442;2023-07-02T02:31:14;100675.34;;;15.49;100.00
73516;BME280;61763;51.416;5.442;2023-07-02T02:33:39;100680.19;;;15.33;100.00
73516;BME280;61763;51.416;5.442;2023-07-02T02:36:05;100672.91;;;15.20;100.00
73516;BME280;61763;51.416;5.442;2023-07-02T02:38:30;100679.97;;;15.23;100.00
73516;BME280;61763;51.416;5.442;2023-07-02T02:40:57;100686.72;;;15.17;100.00
73516;BME280;61763;51.416;5.442;2023-07-02T02:43:23;100686.84;;;15.16;100.00
73516;BME280;61763;51.416;5.442;2023-07-02T02:45:50;100679.13;;;15.10;100.00
73516;BME280;61763;51.416;5.442;2023-07-02T02:48:15;100681.09;;;15.07;100.00
73516;BME280;61763;51.416;5.442;2023-07-02T02:50:40;100680.44;;;15.04;100.00
73516;BME280;61763;51.416;5.442;2023-07-02T02:53:09;100682.28;;;15.03;100.00
73516;BME280;61763;51.416;5.442;2023-07-02T02:55:36;100688.81;;;15.01;100.00
73516;BME280;61763;51.416;5.442;2023-07-02T02:58:01;100693.28;;;15.02;100.00
73516;BME280;61763;51.416;5.442;2023-07-02T03:00:26;100694.13;;;15.02;100.00
73516;BME280;61763;51.416;5.442;2023-07-02T03:02:52;100698.81;;;15.00;100.00
73516;BME280;61763;51.416;5.442;2023-07-02T03:05:17;100706.97;;;15.00;100.00
73516;BME280;61763;51.416;5.442;2023-07-02T03:07:42;100718.81;;;14.86;100.00
73516;BME280;61763;51.416;5.442;2023-07-02T03:10:08;100723.25;;;14.75;100.00
73516;BME280;61763;51.416;5.442;2023-07-02T03:12:33;100721.41;;;14.62;100.00
73516;BME280;61763;51.416;5.442;2023-07-02T03:14:59;100718.31;;;14.54;100.00
73516;BME280;61763;51.416;5.442;2023-07-02T03:17:24;100717.88;;;14.47;100.00
73516;BME280;61763;51.416;5.442;2023-07-02T03:19:50;100734.03;;;14.36;100.00
73516;BME280;61763;51.416;5.442;2023-07-02T03:22:15;100733.00;;;14.24;100.00
73516;BME280;61763;51.416;5.442;2023-07-02T03:24:41;100726.03;;;14.20;100.00
73516;BME280;61763;51.416;5.442;2023-07-02T03:27:06;100728.38;;;14.12;100.00
73516;BME280;61763;51.416;5.442;2023-07-02T03:29:34;100735.34;;;14.16;100.00
73516;BME280;61763;51.416;5.442;2023-07-02T03:31:59;100738.06;;;14.16;100.00
73516;BME280;61763;51.416;5.442;2023-07-02T03:34:25;100736.34;;;14.15;100.00
73516;BME280;61763;51.416;5.442;2023-07-02T03:36:50;100744.38;;;14.16;100.00
73516;BME280;61763;51.416;5.442;2023-07-02T03:39:16;100745.78;;;14.22;100.00
73516;BME280;61763;51.416;5.442;2023-07-02T03:41:43;100748.00;;;14.30;100.00
73516;BME280;61763;51.416;5.442;2023-07-02T03:44:08;100759.66;;;14.45;100.00
73516;BME280;61763;51.416;5.442;2023-07-02T03:46:34;100743.81;;;14.51;100.00
73516;BME280;61763;51.416;5.442;2023-07-02T03:48:59;100748.59;;;14.48;100.00
73516;BME280;61763;51.416;5.442;2023-07-02T03:51:24;100748.59;;;14.48;100.00
73516;BME280;61763;51.416;5.442;2023-07-02T03:53:50;100748.69;;;14.46;100.00
73516;BME280;61763;51.416;5.442;2023-07-02T03:56:15;100751.75;;;14.42;100.00
73516;BME280;61763;51.416;5.442;2023-07-02T03:58:41;100756.69;;;14.35;100.00
73516;BME280;61763;51.416;5.442;2023-07-02T04:01:06;100767.22;;;14.27;100.00
73516;BME280;61763;51.416;5.442;2023-07-02T04:03:32;100764.91;;;14.20;100.00
73516;BME280;61763;51.416;5.442;2023-07-02T04:05:57;100759.69;;;14.17;100.00
73516;BME280;61763;51.416;5.442;2023-07-02T04:08:22;100766.31;;;14.13;100.00
73516;BME280;61763;51.416;5.442;2023-07-02T04:10:50;100775.84;;;14.19;100.00
73516;BME280;61763;51.416;5.442;2023-07-02T04:13:15;100769.03;;;14.26;100.00
73516;BME280;61763;51.416;5.442;2023-07-02T04:15:40;100760.31;;;14.35;100.00
73516;BME280;61763;51.416;5.442;2023-07-02T04:18:07;100773.91;;;14.48;100.00
73516;BME280;61763;51.416;5.442;2023-07-02T04:20:33;100772.13;;;14.62;100.00
73516;BME280;61763;51.416;5.442;2023-07-02T04:22:58;100769.09;;;14.79;100.00
73516;BME280;61763;51.416;5.442;2023-07-02T04:25:24;100772.81;;;14.78;100.00
73516;BME280;61763;51.416;5.442;2023-07-02T04:27:49;100770.22;;;14.77;100.00
73516;BME280;61763;51.416;5.442;2023-07-02T04:30:15;100775.09;;;14.84;100.00
73516;BME280;61763;51.416;5.442;2023-07-02T04:32:40;100780.75;;;14.81;100.00
73516;BME280;61763;51.416;5.442;2023-07-02T04:35:09;100779.66;;;14.84;100.00
73516;BME280;61763;51.416;5.442;2023-07-02T04:37:35;100779.75;;;14.82;100.00
73516;BME280;61763;51.416;5.442;2023-07-02T04:40:01;100773.81;;;14.90;100.00
73516;BME280;61763;51.416;5.442;2023-07-02T04:42:29;100771.75;;;15.06;100.00
73516;BME280;61763;51.416;5.442;2023-07-02T04:44:57;100777.72;;;15.24;100.00
73516;BME280;61763;51.416;5.442;2023-07-02T04:47:28;100780.31;;;15.13;100.00
73516;BME280;61763;51.416;5.442;2023-07-02T04:49:55;100788.59;;;15.12;100.00
73516;BME280;61763;51.416;5.442;2023-07-02T04:52:20;100782.06;;;15.14;100.00
73516;BME280;61763;51.416;5.442;2023-07-02T04:54:47;100779.47;;;15.13;100.00
73516;BME280;61763;51.416;5.442;2023-07-02T04:57:12;100790.78;;;15.19;100.00
73516;BME280;61763;51.416;5.442;2023-07-02T04:59:43;100781.75;;;15.32;100.00
73516;BME280;61763;51.416;5.442;2023-07-02T05:02:09;100787.84;;;15.35;100.00
73516;BME280;61763;51.416;5.442;2023-07-02T05:04:35;100786.75;;;15.51;100.00
73516;BME280;61763;51.416;5.442;2023-07-02T05:07:03;100798.25;;;15.67;100.00
73516;BME280;61763;51.416;5.442;2023-07-02T05:09:30;100788.78;;;15.73;100.00
73516;BME280;61763;51.416;5.442;2023-07-02T05:11:55;100791.91;;;15.92;100.00
73516;BME280;61763;51.416;5.442;2023-07-02T05:14:21;100796.25;;;15.95;100.00
73516;BME280;61763;51.416;5.442;2023-07-02T05:16:48;100793.66;;;15.93;100.00
73516;BME280;61763;51.416;5.442;2023-07-02T05:19:13;100802.75;;;16.05;100.00
73516;BME280;61763;51.416;5.442;2023-07-02T05:21:38;100806.63;;;16.27;100.00
73516;BME280;61763;51.416;5.442;2023-07-02T05:24:04;100812.91;;;16.27;100.00
73516;BME280;61763;51.416;5.442;2023-07-02T05:26:30;100818.59;;;16.49;100.00
73516;BME280;61763;51.416;5.442;2023-07-02T05:28:55;100814.78;;;16.51;100.00
73516;BME280;61763;51.416;5.442;2023-07-02T05:31:20;100809.50;;;16.61;100.00
73516;BME280;61763;51.416;5.442;2023-07-02T05:33:46;100822.25;;;16.60;100.00
73516;BME280;61763;51.416;5.442;2023-07-02T05:36:11;100817.31;;;16.66;100.00
73516;BME280;61763;51.416;5.442;2023-07-02T05:38:36;100828.22;;;16.90;100.00
73516;BME280;61763;51.416;5.442;2023-07-02T05:41:02;100822.06;;;17.10;100.00
73516;BME280;61763;51.416;5.442;2023-07-02T05:43:28;100827.03;;;17.16;100.00
73516;BME280;61763;51.416;5.442;2023-07-02T05:45:53;100830.91;;;17.25;100.00
73516;BME280;61763;51.416;5.442;2023-07-02T05:48:19;100829.34;;;17.45;100.00
73516;BME280;61763;51.416;5.442;2023-07-02T05:50:45;100833.69;;;17.48;100.00
73516;BME280;61763;51.416;5.442;2023-07-02T05:53:10;100838.91;;;17.62;100.00
73516;BME280;61763;51.416;5.442;2023-07-02T05:55:36;100837.78;;;17.65;100.00
73516;BME280;61763;51.416;5.442;2023-07-02T05:58:02;100845.50;;;17.71;100.00
73516;BME280;61763;51.416;5.442;2023-07-02T06:00:29;100845.84;;;17.66;100.00
73516;BME280;61763;51.416;5.442;2023-07-02T06:02:54;100844.47;;;17.49;100.00
73516;BME280;61763;51.416;5.442;2023-07-02T06:05:21;100852.19;;;17.67;100.00
73516;BME280;61763;51.416;5.442;2023-07-02T06:07:47;100844.03;;;17.90;100.00
73516;BME280;61763;51.416;5.442;2023-07-02T06:10:12;100853.53;;;18.18;100.00
73516;BME280;61763;51.416;5.442;2023-07-02T06:12:37;100851.78;;;18.28;100.00
73516;BME280;61763;51.416;5.442;2023-07-02T06:15:04;100855.88;;;18.45;100.00
73516;BME280;61763;51.416;5.442;2023-07-02T06:17:30;100853.06;;;18.68;100.00
73516;BME280;61763;51.416;5.442;2023-07-02T06:19:56;100851.06;;;18.70;100.00
73516;BME280;61763;51.416;5.442;2023-07-02T06:22:22;100854.63;;;18.82;100.00
73516;BME280;61763;51.416;5.442;2023-07-02T06:24:48;100845.78;;;18.89;100.00
73516;BME280;61763;51.416;5.442;2023-07-02T06:27:14;100850.59;;;18.97;100.00
73516;BME280;61763;51.416;5.442;2023-07-02T06:29:39;100854.63;;;19.14;100.00
73516;BME280;61763;51.416;5.442;2023-07-02T06:32:05;100857.94;;;19.39;100.00
73516;BME280;61763;51.416;5.442;2023-07-02T06:34:30;100858.22;;;19.36;99.48
73516;BME280;61763;51.416;5.442;2023-07-02T06:36:56;100869.38;;;19.44;96.43
73516;BME280;61763;51.416;5.442;2023-07-02T06:39:21;100867.28;;;19.57;94.24
73516;BME280;61763;51.416;5.442;2023-07-02T06:41:47;100867.00;;;19.60;91.07
73516;BME280;61763;51.416;5.442;2023-07-02T06:44:12;100870.88;;;19.58;94.70
73516;BME280;61763;51.416;5.442;2023-07-02T06:46:37;100863.44;;;19.91;95.91
73516;BME280;61763;51.416;5.442;2023-07-02T06:49:03;100868.16;;;20.10;89.26
73516;BME280;61763;51.416;5.442;2023-07-02T06:51:28;100873.34;;;20.23;92.20
73516;BME280;61763;51.416;5.442;2023-07-02T06:53:54;100882.59;;;20.22;86.15
73516;BME280;61763;51.416;5.442;2023-07-02T06:56:20;100880.09;;;20.09;90.26
73516;BME280;61763;51.416;5.442;2023-07-02T06:58:46;100886.72;;;20.06;90.86
73516;BME280;61763;51.416;5.442;2023-07-02T07:01:12;100898.38;;;19.99;96.35
73516;BME280;61763;51.416;5.442;2023-07-02T07:03:39;100890.81;;;20.22;93.43
73516;BME280;61763;51.416;5.442;2023-07-02T07:06:05;100890.41;;;20.26;93.48
73516;BME280;61763;51.416;5.442;2023-07-02T07:08:30;100893.78;;;20.59;93.59
73516;BME280;61763;51.416;5.442;2023-07-02T07:10:55;100897.19;;;20.32;94.49
73516;BME280;61763;51.416;5.442;2023-07-02T07:13:22;100897.38;;;20.50;88.91
73516;BME280;61763;51.416;5.442;2023-07-02T07:15:47;100900.69;;;20.03;94.73
73516;BME280;61763;51.416;5.442;2023-07-02T07:18:13;100895.94;;;20.36;97.33
73516;BME280;61763;51.416;5.442;2023-07-02T07:20:39;100895.31;;;20.73;88.48
73516;BME280;61763;51.416;5.442;2023-07-02T07:23:05;100901.31;;;20.57;87.06
73516;BME280;61763;51.416;5.442;2023-07-02T07:25:31;100901.13;;;20.49;85.06
73516;BME280;61763;51.416;5.442;2023-07-02T07:27:58;100905.78;;;20.18;90.12
73516;BME280;61763;51.416;5.442;2023-07-02T07:30:24;100910.00;;;20.31;93.44
73516;BME280;61763;51.416;5.442;2023-07-02T07:32:50;100911.22;;;20.48;90.53
73516;BME280;61763;51.416;5.442;2023-07-02T07:35:16;100916.25;;;20.34;87.82
73516;BME280;61763;51.416;5.442;2023-07-02T07:37:42;100925.50;;;20.52;82.84
73516;BME280;61763;51.416;5.442;2023-07-02T07:40:07;100920.06;;;20.62;78.87
73516;BME280;61763;51.416;5.442;2023-07-02T07:42:33;100929.44;;;20.59;81.29
73516;BME280;61763;51.416;5.442;2023-07-02T07:44:58;100931.75;;;20.54;81.15
73516;BME280;61763;51.416;5.442;2023-07-02T07:47:24;100936.47;;;20.42;79.19
73516;BME280;61763;51.416;5.442;2023-07-02T07:49:49;100926.13;;;20.65;82.26
73516;BME280;61763;51.416;5.442;2023-07-02T07:52:15;100923.75;;;20.92;74.25
73516;BME280;61763;51.416;5.442;2023-07-02T07:54:40;100924.59;;;20.73;82.58
73516;BME280;61763;51.416;5.442;2023-07-02T07:57:06;100926.94;;;21.07;78.19
73516;BME280;61763;51.416;5.442;2023-07-02T07:59:32;100928.38;;;21.40;73.50
73516;BME280;61763;51.416;5.442;2023-07-02T08:01:57;100925.22;;;21.55;69.92
73516;BME280;61763;51.416;5.442;2023-07-02T08:04:22;100926.22;;;21.53;78.51
73516;BME280;61763;51.416;5.442;2023-07-02T08:06:49;100927.22;;;21.62;72.00
73516;BME280;61763;51.416;5.442;2023-07-02T08:09:14;100921.97;;;21.88;70.88
73516;BME280;61763;51.416;5.442;2023-07-02T08:11:41;100933.91;;;22.07;76.57
73516;BME280;61763;51.416;5.442;2023-07-02T08:14:06;100937.06;;;22.50;68.93
73516;BME280;61763;51.416;5.442;2023-07-02T08:16:31;100942.06;;;22.36;68.85
73516;BME280;61763;51.416;5.442;2023-07-02T08:18:57;100934.69;;;22.27;71.02
73516;BME280;61763;51.416;5.442;2023-07-02T08:21:22;100939.16;;;22.28;70.78
73516;BME280;61763;51.416;5.442;2023-07-02T08:23:47;100940.66;;;22.13;71.84
73516;BME280;61763;51.416;5.442;2023-07-02T08:26:13;100935.81;;;21.97;71.65
73516;BME280;61763;51.416;5.442;2023-07-02T08:28:39;100939.25;;;22.09;68.57
73516;BME280;61763;51.416;5.442;2023-07-02T08:31:05;100947.88;;;22.23;69.57
73516;BME280;61763;51.416;5.442;2023-07-02T08:33:30;100951.31;;;21.88;65.29
73516;BME280;61763;51.416;5.442;2023-07-02T08:35:56;100957.13;;;22.32;63.21
73516;BME280;61763;51.416;5.442;2023-07-02T08:38:22;100955.13;;;21.67;67.53
73516;BME280;61763;51.416;5.442;2023-07-02T08:40:49;100955.81;;;21.79;71.41
73516;BME280;61763;51.416;5.442;2023-07-02T08:43:14;100958.47;;;21.61;65.31
73516;BME280;61763;51.416;5.442;2023-07-02T08:45:41;100961.47;;;21.68;65.83
73516;BME280;61763;51.416;5.442;2023-07-02T08:48:08;100962.50;;;21.57;66.10
73516;BME280;61763;51.416;5.442;2023-07-02T08:50:33;100960.41;;;21.88;64.00
73516;BME280;61763;51.416;5.442;2023-07-02T08:52:59;100966.47;;;21.92;63.76
73516;BME280;61763;51.416;5.442;2023-07-02T08:55:24;100965.91;;;21.49;61.32
73516;BME280;61763;51.416;5.442;2023-07-02T08:57:53;100966.97;;;21.48;64.18
73516;BME280;61763;51.416;5.442;2023-07-02T09:00:18;100968.50;;;22.00;59.51
73516;BME280;61763;51.416;5.442;2023-07-02T09:02:45;100968.44;;;22.10;61.11
73516;BME280;61763;51.416;5.442;2023-07-02T09:05:12;100969.56;;;22.36;61.73
73516;BME280;61763;51.416;5.442;2023-07-02T09:07:48;100963.47;;;22.23;59.64
73516;BME280;61763;51.416;5.442;2023-07-02T09:10:30;100961.47;;;22.25;62.66
73516;BME280;61763;51.416;5.442;2023-07-02T09:13:07;100963.22;;;22.16;63.15
73516;BME280;61763;51.416;5.442;2023-07-02T09:15:38;100958.97;;;21.94;61.72
73516;BME280;61763;51.416;5.442;2023-07-02T09:18:20;100961.78;;;22.12;66.96
73516;BME280;61763;51.416;5.442;2023-07-02T09:20:50;100966.50;;;22.39;54.97
73516;BME280;61763;51.416;5.442;2023-07-02T09:23:16;100964.56;;;22.50;55.84
73516;BME280;61763;51.416;5.442;2023-07-02T09:25:41;100972.16;;;22.28;56.09
73516;BME280;61763;51.416;5.442;2023-07-02T09:28:22;100973.31;;;22.26;56.79
73516;BME280;61763;51.416;5.442;2023-07-02T09:30:53;100979.03;;;22.04;58.20
73516;BME280;61763;51.416;5.442;2023-07-02T09:33:19;100968.56;;;22.18;55.50
73516;BME280;61763;51.416;5.442;2023-07-02T09:35:45;100953.91;;;22.27;55.57
73516;BME280;61763;51.416;5.442;2023-07-02T09:38:12;100959.50;;;22.73;58.89
73516;BME280;61763;51.416;5.442;2023-07-02T09:40:46;100951.78;;;22.21;52.56
73516;BME280;61763;51.416;5.442;2023-07-02T09:43:13;100954.78;;;22.65;53.12
73516;BME280;61763;51.416;5.442;2023-07-02T09:45:43;100962.72;;;22.40;53.07
73516;BME280;61763;51.416;5.442;2023-07-02T09:48:12;100962.84;;;22.49;55.29
73516;BME280;61763;51.416;5.442;2023-07-02T09:50:39;100959.56;;;21.88;54.94
73516;BME280;61763;51.416;5.442;2023-07-02T09:53:05;100970.13;;;21.24;59.41
73516;BME280;61763;51.416;5.442;2023-07-02T09:55:31;100965.66;;;21.43;60.24
73516;BME280;61763;51.416;5.442;2023-07-02T09:57:57;100982.78;;;20.86;58.32
73516;BME280;61763;51.416;5.442;2023-07-02T10:00:23;100974.41;;;20.78;59.46
73516;BME280;61763;51.416;5.442;2023-07-02T10:02:49;100967.59;;;20.72;60.00
73516;BME280;61763;51.416;5.442;2023-07-02T10:05:32;100984.81;;;20.53;61.77
73516;BME280;61763;51.416;5.442;2023-07-02T10:08:11;100988.84;;;20.49;59.40
73516;BME280;61763;51.416;5.442;2023-07-02T10:10:38;101000.38;;;20.74;60.08
73516;BME280;61763;51.416;5.442;2023-07-02T10:13:04;100989.03;;;21.27;56.88
73516;BME280;61763;51.416;5.442;2023-07-02T10:15:30;100995.59;;;21.56;57.27
73516;BME280;61763;51.416;5.442;2023-07-02T10:18:05;100989.03;;;21.86;58.27
73516;BME280;61763;51.416;5.442;2023-07-02T10:23:02;100997.56;;;21.93;53.92
73516;BME280;61763;51.416;5.442;2023-07-02T10:25:37;100993.31;;;22.18;53.40
73516;BME280;61763;51.416;5.442;2023-07-02T10:28:20;100993.75;;;22.61;55.74
73516;BME280;61763;51.416;5.442;2023-07-02T10:30:48;100992.81;;;22.42;52.43
73516;BME280;61763;51.416;5.442;2023-07-02T10:33:14;101005.63;;;22.14;54.58
73516;BME280;61763;51.416;5.442;2023-07-02T10:35:41;101006.66;;;22.03;55.13
73516;BME280;61763;51.416;5.442;2023-07-02T10:38:07;101001.03;;;21.95;54.71
73516;BME280;61763;51.416;5.442;2023-07-02T10:40:33;101003.66;;;21.86;60.83
73516;BME280;61763;51.416;5.442;2023-07-02T10:42:58;101012.22;;;21.74;58.49
73516;BME280;61763;51.416;5.442;2023-07-02T10:45:35;101007.03;;;21.51;57.88
73516;BME280;61763;51.416;5.442;2023-07-02T10:48:08;101005.72;;;21.65;58.34
73516;BME280;61763;51.416;5.442;2023-07-02T10:50:34;101002.47;;;21.89;60.38
73516;BME280;61763;51.416;5.442;2023-07-02T10:53:00;101010.25;;;22.13;58.57
73516;BME280;61763;51.416;5.442;2023-07-02T10:55:26;101005.81;;;21.93;58.80
73516;BME280;61763;51.416;5.442;2023-07-02T10:58:04;101005.81;;;21.93;62.09
73516;BME280;61763;51.416;5.442;2023-07-02T11:00:30;101001.53;;;22.65;60.59
73516;BME280;61763;51.416;5.442;2023-07-02T11:02:55;100992.19;;;23.04;60.01
73516;BME280;61763;51.416;5.442;2023-07-02T11:05:21;100990.22;;;22.68;57.33
73516;BME280;61763;51.416;5.442;2023-07-02T11:07:46;101004.28;;;22.65;58.00
73516;BME280;61763;51.416;5.442;2023-07-02T11:10:18;100990.38;;;22.29;55.14
73516;BME280;61763;51.416;5.442;2023-07-02T11:12:43;100983.84;;;22.30;57.28
73516;BME280;61763;51.416;5.442;2023-07-02T11:15:13;100990.94;;;22.98;58.69
73516;BME280;61763;51.416;5.442;2023-07-02T11:17:40;101003.47;;;23.47;56.55
73516;BME280;61763;51.416;5.442;2023-07-02T11:20:09;101007.97;;;22.84;54.80
73516;BME280;61763;51.416;5.442;2023-07-02T11:22:36;100990.38;;;22.95;53.60
73516;BME280;61763;51.416;5.442;2023-07-02T11:25:12;100995.25;;;22.73;53.19
73516;BME280;61763;51.416;5.442;2023-07-02T11:27:37;100989.50;;;22.94;56.67
73516;BME280;61763;51.416;5.442;2023-07-02T11:30:04;100992.97;;;22.96;55.25
73516;BME280;61763;51.416;5.442;2023-07-02T11:32:29;100978.56;;;23.12;56.95
73516;BME280;61763;51.416;5.442;2023-07-02T11:34:55;100983.88;;;23.50;59.46
73516;BME280;61763;51.416;5.442;2023-07-02T11:37:21;100990.44;;;24.11;54.47
73516;BME280;61763;51.416;5.442;2023-07-02T11:39:47;100987.69;;;23.31;52.93
73516;BME280;61763;51.416;5.442;2023-07-02T11:42:12;100992.28;;;22.94;54.02
73516;BME280;61763;51.416;5.442;2023-07-02T11:44:38;100990.84;;;22.62;55.52
73516;BME280;61763;51.416;5.442;2023-07-02T11:47:03;100997.44;;;21.94;57.57
73516;BME280;61763;51.416;5.442;2023-07-02T11:49:29;100993.38;;;23.01;59.66
73516;BME280;61763;51.416;5.442;2023-07-02T11:51:54;100985.81;;;24.20;52.23
73516;BME280;61763;51.416;5.442;2023-07-02T11:54:20;100986.50;;;24.13;53.45
73516;BME280;61763;51.416;5.442;2023-07-02T11:56:45;100986.16;;;23.72;52.89
73516;BME280;61763;51.416;5.442;2023-07-02T11:59:11;100994.22;;;23.12;58.45
73516;BME280;61763;51.416;5.442;2023-07-02T12:01:37;100994.56;;;22.71;57.26
73516;BME280;61763;51.416;5.442;2023-07-02T12:04:03;100987.06;;;22.26;61.98
73516;BME280;61763;51.416;5.442;2023-07-02T12:06:30;100984.75;;;22.31;64.14
73516;BME280;61763;51.416;5.442;2023-07-02T12:08:55;100990.88;;;22.52;60.86
73516;BME280;61763;51.416;5.442;2023-07-02T12:11:21;100999.75;;;22.46;59.65
73516;BME280;61763;51.416;5.442;2023-07-02T12:13:46;100988.22;;;22.33;57.22
73516;BME280;61763;51.416;5.442;2023-07-02T12:16:11;100985.03;;;22.93;51.63
73516;BME280;61763;51.416;5.442;2023-07-02T12:18:37;100996.91;;;22.66;50.43
73516;BME280;61763;51.416;5.442;2023-07-02T12:21:02;101000.69;;;22.92;51.05
73516;BME280;61763;51.416;5.442;2023-07-02T12:23:27;100996.44;;;23.44;50.40
73516;BME280;61763;51.416;5.442;2023-07-02T12:25:53;100995.22;;;23.47;48.06
73516;BME280;61763;51.416;5.442;2023-07-02T12:28:18;100989.72;;;22.83;49.34
73516;BME280;61763;51.416;5.442;2023-07-02T12:30:44;100987.41;;;23.60;51.04
73516;BME280;61763;51.416;5.442;2023-07-02T12:33:09;100987.78;;;23.83;47.81
73516;BME280;61763;51.416;5.442;2023-07-02T12:35:34;100989.69;;;23.83;45.82
73516;BME280;61763;51.416;5.442;2023-07-02T12:38:00;100989.84;;;23.99;47.80
73516;BME280;61763;51.416;5.442;2023-07-02T12:40:25;100977.19;;;24.14;47.95
73516;BME280;61763;51.416;5.442;2023-07-02T12:42:51;100993.41;;;23.91;48.00
73516;BME280;61763;51.416;5.442;2023-07-02T12:45:16;100994.06;;;23.31;47.48